Time,TemperatureF,DewpointF,PressureIn,WindDirection,WindDirectionDegrees,WindSpeedMPH,WindSpeedGustMPH,Humidity,HourlyPrecipIn,Conditions,Clouds,dailyrainin,SoftwareType,DateUTC
2013-01-13 00:00:00,4.5,-0.6,28.88,WNW,290,4.9,7.4,77,0.00,,,0.00,WSDL version 420,2013-01-13 07:00:00,
2013-01-13 00:05:00,4.6,-0.5,28.88,WNW,289,5.3,6.5,77,0.00,,,0.00,WSDL version 420,2013-01-13 07:05:00,
2013-01-13 00:10:00,4.6,-0.4,28.88,WNW,284,4.8,6.5,77,0.00,,,0.00,WSDL version 420,2013-01-13 07:10:00,
2013-01-13 00:15:00,4.8,-0.2,28.88,WNW,287,6.4,8.5,77,0.00,,,0.00,WSDL version 420,2013-01-13 07:15:00,
2013-01-13 00:20:00,5.0,-0.1,28.88,West,280,6.0,8.5,77,0.00,,,0.00,WSDL version 420,2013-01-13 07:20:00,
2013-01-13 00:25:00,5.0,0.0,28.88,WNW,293,6.4,9.6,77,0.00,,,0.00,WSDL version 420,2013-01-13 07:25:00,
2013-01-13 00:30:00,5.2,0.1,28.88,WNW,293,6.2,9.6,77,0.00,,,0.00,WSDL version 420,2013-01-13 07:30:00,
2013-01-13 00:35:00,-999.0,-99.9,28.88,WNW,289,6.5,8.7,-999,0.00,,,0.00,WSDL version 420,2013-01-13 07:35:00,
2013-01-13 00:40:00,5.2,0.1,28.88,WNW,293,6.3,8.5,77,0.00,,,0.00,WSDL version 420,2013-01-13 07:40:00,
2013-01-13 00:45:00,5.2,0.1,28.88,West,266,6.0,8.1,77,0.00,,,0.00,WSDL version 420,2013-01-13 07:45:00,
2013-01-13 00:50:00,5.2,0.1,28.88,WNW,287,5.2,8.1,77,0.00,,,0.00,WSDL version 420,2013-01-13 07:50:00,
2013-01-13 00:55:00,5.2,0.2,28.91,WNW,286,5.9,7.8,77,0.00,,,0.00,WSDL version 420,2013-01-13 07:55:00,
2013-01-13 01:00:00,5.4,0.3,28.91,WNW,283,5.5,7.8,77,0.00,,,0.00,WSDL version 420,2013-01-13 08:00:00,
2013-01-13 01:05:00,5.4,0.3,28.91,WNW,293,6.4,7.8,77,0.00,,,0.00,WSDL version 420,2013-01-13 08:05:00,
2013-01-13 01:10:00,5.4,0.3,28.91,WNW,289,6.1,7.8,77,0.00,,,0.00,WSDL version 420,2013-01-13 08:10:00,
2013-01-13 01:15:00,5.4,0.3,28.91,WNW,293,6.7,8.1,77,0.00,,,0.00,WSDL version 420,2013-01-13 08:15:00,
2013-01-13 01:20:00,5.4,0.3,28.91,WNW,286,5.8,8.1,77,0.00,,,0.00,WSDL version 420,2013-01-13 08:20:00,
2013-01-13 01:25:00,5.4,0.3,28.91,West,273,5.0,7.6,77,0.00,,,0.00,WSDL version 420,2013-01-13 08:25:00,
2013-01-13 01:30:00,5.4,0.3,28.91,West,273,6.0,7.4,77,0.00,,,0.00,WSDL version 420,2013-01-13 08:30:00,
2013-01-13 01:35:00,5.4,0.3,28.91,West,263,4.8,7.4,77,0.00,,,0.00,WSDL version 420,2013-01-13 08:35:00,
2013-01-13 01:40:00,5.4,0.3,28.91,West,281,5.3,6.5,77,0.00,,,0.00,WSDL version 420,2013-01-13 08:40:00,
2013-01-13 01:45:00,5.4,0.3,28.91,WNW,290,4.9,6.5,77,0.00,,,0.00,WSDL version 420,2013-01-13 08:45:00,
2013-01-13 01:50:00,5.3,0.2,28.91,WNW,286,5.0,6.3,77,0.00,,,0.00,WSDL version 420,2013-01-13 08:50:00,
2013-01-13 01:56:00,5.2,0.1,28.91,WNW,293,4.8,6.5,77,0.00,,,0.00,WSDL version 420,2013-01-13 08:56:00,
2013-01-13 02:01:00,5.2,0.1,28.91,WNW,293,5.4,6.5,77,0.00,,,0.00,WSDL version 420,2013-01-13 09:01:00,
2013-01-13 02:06:00,-999.0,-99.9,28.91,WNW,297,5.5,7.6,-999,0.00,,,0.00,WSDL version 420,2013-01-13 09:06:00,
2013-01-13 02:11:00,5.0,0.0,28.91,WNW,289,6.5,8.5,77,0.00,,,0.00,WSDL version 420,2013-01-13 09:11:00,
2013-01-13 02:16:00,5.0,0.0,28.91,WNW,293,5.7,8.5,77,0.00,,,0.00,WSDL version 420,2013-01-13 09:16:00,
2013-01-13 02:21:00,4.8,-0.2,28.91,West,280,4.5,8.1,77,0.00,,,0.00,WSDL version 420,2013-01-13 09:21:00,
2013-01-13 02:26:00,4.6,-0.5,28.91,WNW,285,4.6,8.1,77,0.00,,,0.00,WSDL version 420,2013-01-13 09:26:00,
2013-01-13 02:31:00,4.5,-0.6,28.91,WNW,287,4.3,5.8,77,0.00,,,0.00,WSDL version 420,2013-01-13 09:31:00,
2013-01-13 02:36:00,4.3,-0.7,28.91,NW,304,5.6,7.4,77,0.00,,,0.00,WSDL version 420,2013-01-13 09:36:00,
2013-01-13 02:41:00,4.3,-0.7,28.91,NW,307,4.8,8.1,77,0.00,,,0.00,WSDL version 420,2013-01-13 09:41:00,
2013-01-13 02:46:00,4.2,-0.8,28.91,WNW,298,4.8,8.1,77,0.00,,,0.00,WSDL version 420,2013-01-13 09:46:00,
2013-01-13 02:51:00,4.1,-0.9,28.91,NW,315,3.5,7.4,77,0.00,,,0.00,WSDL version 420,2013-01-13 09:51:00,
2013-01-13 02:56:00,4.1,-1.0,28.91,WNW,293,4.0,5.6,77,0.00,,,0.00,WSDL version 420,2013-01-13 09:56:00,
2013-01-13 03:01:00,3.8,-1.2,28.91,NW,304,3.9,5.8,77,-99.99,,,-99.99,WSDL version 420,2013-01-13 10:01:00,
2013-01-13 03:06:00,3.7,-1.3,28.91,NW,304,3.6,5.8,77,0.00,,,0.00,WSDL version 420,2013-01-13 10:06:00,
2013-01-13 03:11:00,3.7,-1.3,28.91,NW,308,4.0,5.6,77,0.00,,,0.00,WSDL version 420,2013-01-13 10:11:00,
2013-01-13 03:16:00,3.6,-1.4,28.91,NW,318,3.7,5.6,77,0.00,,,0.00,WSDL version 420,2013-01-13 10:16:00,
2013-01-13 03:21:00,3.6,-1.5,28.91,NW,309,4.3,5.6,77,0.00,,,0.00,WSDL version 420,2013-01-13 10:21:00,
2013-01-13 03:26:00,3.5,-1.6,28.91,WNW,289,3.7,5.6,77,-99.99,,,-99.99,WSDL version 420,2013-01-13 10:26:00,
2013-01-13 03:31:00,3.2,-1.8,28.91,WNW,293,3.4,6.3,77,0.00,,,0.00,WSDL version 420,2013-01-13 10:31:00,
2013-01-13 03:36:00,3.0,-2.0,28.91,WNW,289,3.7,6.3,77,0.00,,,0.00,WSDL version 420,2013-01-13 10:36:00,
2013-01-13 03:41:00,2.5,-2.5,28.91,WNW,286,2.7,4.9,77,0.00,,,0.00,WSDL version 420,2013-01-13 10:41:00,
2013-01-13 03:46:00,2.1,-2.9,28.91,West,278,2.8,4.3,77,0.00,,,0.00,WSDL version 420,2013-01-13 10:46:00,
2013-01-13 03:51:00,1.7,-3.3,28.91,West,278,2.0,4.3,77,0.00,,,0.00,WSDL version 420,2013-01-13 10:51:00,
2013-01-13 03:56:00,1.1,-3.9,28.91,WSW,244,3.1,4.7,77,0.00,,,0.00,WSDL version 420,2013-01-13 10:56:00,
2013-01-13 04:01:00,0.7,-4.2,28.91,West,267,1.9,4.7,77,0.00,,,0.00,WSDL version 420,2013-01-13 11:01:00,
2013-01-13 04:07:00,0.4,-4.6,28.91,West,264,2.0,2.9,77,0.00,,,0.00,WSDL version 420,2013-01-13 11:07:00,
2013-01-13 04:12:00,0.3,-4.7,28.88,West,263,2.1,3.8,77,0.00,,,0.00,WSDL version 420,2013-01-13 11:12:00,
2013-01-13 04:17:00,0.3,-4.7,28.88,West,274,2.6,5.4,77,0.00,,,0.00,WSDL version 420,2013-01-13 11:17:00,
2013-01-13 04:22:00,0.1,-4.9,28.88,SW,233,2.0,5.4,77,0.00,,,0.00,WSDL version 420,2013-01-13 11:22:00,
2013-01-13 04:27:00,-999.0,-99.9,28.88,WSW,248,2.4,4.0,-999,-99.99,,,-99.99,WSDL version 420,2013-01-13 11:27:00,
2013-01-13 04:32:00,0.0,-5.0,28.88,WSW,245,2.4,4.0,77,0.00,,,0.00,WSDL version 420,2013-01-13 11:32:00,
2013-01-13 04:37:00,0.0,-4.9,28.88,West,276,2.8,4.7,77,0.00,,,0.00,WSDL version 420,2013-01-13 11:37:00,
2013-01-13 04:42:00,0.1,-4.8,28.85,West,276,1.7,4.7,77,0.00,,,0.00,WSDL version 420,2013-01-13 11:42:00,
2013-01-13 04:47:00,0.1,-4.8,28.85,WSW,254,1.6,4.3,77,0.00,,,0.00,WSDL version 420,2013-01-13 11:47:00,
2013-01-13 04:52:00,0.1,-4.8,28.85,West,273,2.7,3.6,77,0.00,,,0.00,WSDL version 420,2013-01-13 11:52:00,
2013-01-13 04:57:00,0.3,-4.6,28.88,WSW,244,3.9,5.6,77,0.00,,,0.00,WSDL version 420,2013-01-13 11:57:00,
2013-01-13 05:02:00,0.5,-4.4,28.88,West,270,3.6,5.6,77,0.00,,,0.00,WSDL version 420,2013-01-13 12:02:00,
2013-01-13 05:07:00,0.5,-4.4,28.88,WNW,286,4.2,6.5,77,0.00,,,0.00,WSDL version 420,2013-01-13 12:07:00,
2013-01-13 05:12:00,0.3,-4.6,28.88,West,276,3.8,6.5,77,0.00,,,0.00,WSDL version 420,2013-01-13 12:12:00,
2013-01-13 05:17:00,0.2,-4.7,28.88,West,278,2.8,5.6,77,0.00,,,0.00,WSDL version 420,2013-01-13 12:17:00,
2013-01-13 05:22:00,-999.0,-99.9,28.88,West,270,2.8,4.9,-999,0.00,,,0.00,WSDL version 420,2013-01-13 12:22:00,
2013-01-13 05:27:00,0.0,-4.9,28.88,West,278,2.9,4.9,77,0.00,,,0.00,WSDL version 420,2013-01-13 12:27:00,
2013-01-13 05:32:00,-0.1,-5.0,28.88,WNW,284,3.1,4.3,77,0.00,,,0.00,WSDL version 420,2013-01-13 12:32:00,
2013-01-13 05:37:00,-0.4,-5.3,28.88,West,280,3.2,5.4,77,0.00,,,0.00,WSDL version 420,2013-01-13 12:37:00,
2013-01-13 05:42:00,-0.7,-5.6,28.88,West,261,2.4,5.4,77,0.00,,,0.00,WSDL version 420,2013-01-13 12:42:00,
2013-01-13 05:47:00,-1.2,-6.1,28.88,WNW,283,2.2,4.0,77,0.00,,,0.00,WSDL version 420,2013-01-13 12:47:00,
2013-01-13 05:52:00,-1.6,-6.5,28.88,West,264,2.8,4.7,77,0.00,,,0.00,WSDL version 420,2013-01-13 12:52:00,
2013-01-13 05:57:00,-999.0,-99.9,28.88,WSW,248,3.2,4.9,-999,0.00,,,0.00,WSDL version 420,2013-01-13 12:57:00,
2013-01-13 06:02:00,-1.8,-6.7,28.88,West,265,3.7,6.3,77,0.00,,,0.00,WSDL version 420,2013-01-13 13:02:00,
2013-01-13 06:07:00,-1.8,-6.7,28.88,West,276,4.3,6.3,77,0.00,,,0.00,WSDL version 420,2013-01-13 13:07:00,
2013-01-13 06:12:00,-1.8,-6.7,28.88,West,280,4.9,8.1,77,0.00,,,0.00,WSDL version 420,2013-01-13 13:12:00,
2013-01-13 06:17:00,-1.8,-6.7,28.88,West,264,3.6,8.1,77,0.00,,,0.00,WSDL version 420,2013-01-13 13:17:00,
2013-01-13 06:22:00,-1.8,-6.6,28.88,West,270,4.0,6.0,77,0.00,,,0.00,WSDL version 420,2013-01-13 13:22:00,
2013-01-13 06:27:00,-1.7,-6.6,28.88,West,261,3.1,6.0,77,0.00,,,0.00,WSDL version 420,2013-01-13 13:27:00,
2013-01-13 06:32:00,-1.8,-6.7,28.88,WSW,254,2.2,4.9,77,-99.99,,,-99.99,WSDL version 420,2013-01-13 13:32:00,
2013-01-13 06:37:00,-1.8,-6.7,28.88,West,278,3.0,4.0,77,0.00,,,0.00,WSDL version 420,2013-01-13 13:37:00,
2013-01-13 06:42:00,-1.8,-6.7,28.88,WSW,257,3.8,6.5,77,0.00,,,0.00,WSDL version 420,2013-01-13 13:42:00,
2013-01-13 06:47:00,-1.6,-6.5,28.88,West,281,5.0,6.5,77,0.00,,,0.00,WSDL version 420,2013-01-13 13:47:00,
2013-01-13 06:52:00,-1.5,-6.4,28.88,WNW,290,5.0,6.3,77,0.00,,,0.00,WSDL version 420,2013-01-13 13:52:00,
2013-01-13 06:57:00,-1.4,-6.3,28.88,West,273,4.3,6.3,77,0.00,,,0.00,WSDL version 420,2013-01-13 13:57:00,
2013-01-13 07:02:00,-1.3,-6.2,28.88,WNW,286,5.5,6.9,77,0.00,,,0.00,WSDL version 420,2013-01-13 14:02:00,
2013-01-13 07:07:00,-1.3,-6.2,28.88,West,280,6.1,7.8,77,0.00,,,0.00,WSDL version 420,2013-01-13 14:07:00,
2013-01-13 07:12:00,-1.0,-5.9,28.91,West,276,8.1,10.3,77,0.00,,,0.00,WSDL version 420,2013-01-13 14:12:00,
2013-01-13 07:17:00,-0.9,-5.9,28.91,WNW,289,7.3,10.3,77,-99.99,,,-99.99,WSDL version 420,2013-01-13 14:17:00,
2013-01-13 07:22:00,-0.9,-5.9,28.91,West,275,6.0,9.2,77,-99.99,,,-99.99,WSDL version 420,2013-01-13 14:22:00,
2013-01-13 07:27:00,-0.9,-5.8,28.88,West,267,5.8,8.7,77,0.00,,,0.00,WSDL version 420,2013-01-13 14:27:00,
2013-01-13 07:32:00,-0.7,-5.6,28.88,West,276,5.0,8.7,77,0.00,,,0.00,WSDL version 420,2013-01-13 14:32:00,
2013-01-13 07:37:00,-0.8,-5.7,28.88,West,280,5.4,7.4,77,0.00,,,0.00,WSDL version 420,2013-01-13 14:37:00,
2013-01-13 07:42:00,-0.6,-5.5,28.91,West,281,4.7,6.5,77,0.00,,,0.00,WSDL version 420,2013-01-13 14:42:00,
2013-01-13 07:47:00,-0.6,-5.5,28.91,West,270,5.2,7.2,77,0.00,,,0.00,WSDL version 420,2013-01-13 14:47:00,
2013-01-13 07:52:00,-0.2,-5.2,28.91,WNW,283,4.9,7.2,77,0.00,,,0.00,WSDL version 420,2013-01-13 14:52:00,
2013-01-13 07:57:00,0.2,-4.8,28.91,WNW,290,6.5,7.8,77,0.00,,,0.00,WSDL version 420,2013-01-13 14:57:00,
2013-01-13 08:02:00,0.4,-4.6,28.91,WNW,290,6.4,8.5,77,0.00,,,0.00,WSDL version 420,2013-01-13 15:02:00,
2013-01-13 08:07:00,0.5,-4.4,28.91,West,274,7.1,8.7,77,0.00,,,0.00,WSDL version 420,2013-01-13 15:07:00,
2013-01-13 08:12:00,0.7,-4.3,28.88,WNW,283,5.8,8.7,77,0.00,,,0.00,WSDL version 420,2013-01-13 15:12:00,
2013-01-13 08:17:00,0.8,-4.2,28.88,WNW,293,6.1,8.5,77,0.00,,,0.00,WSDL version 420,2013-01-13 15:17:00,
2013-01-13 08:22:00,1.4,-3.6,28.88,West,278,4.7,7.8,77,-99.99,,,-99.99,WSDL version 420,2013-01-13 15:22:00,
2013-01-13 08:27:00,2.0,-3.0,28.91,West,276,2.4,6.5,77,0.00,,,0.00,WSDL version 420,2013-01-13 15:27:00,
2013-01-13 08:32:00,2.6,-2.4,28.91,WNW,286,2.6,4.9,77,0.00,,,0.00,WSDL version 420,2013-01-13 15:32:00,
2013-01-13 08:37:00,-999.0,-99.9,28.91,West,274,3.1,4.3,-999,0.00,,,0.00,WSDL version 420,2013-01-13 15:37:00,
2013-01-13 08:42:00,3.9,-1.1,28.91,West,270,4.6,6.0,77,0.00,,,0.00,WSDL version 420,2013-01-13 15:42:00,
2013-01-13 08:47:00,4.6,-0.5,28.91,West,278,5.9,8.7,77,0.00,,,0.00,WSDL version 420,2013-01-13 15:47:00,
2013-01-13 08:52:00,5.3,0.2,28.91,West,259,4.2,8.7,77,0.00,,,0.00,WSDL version 420,2013-01-13 15:52:00,
2013-01-13 08:57:00,5.8,0.7,28.91,WNW,286,6.4,7.4,77,0.00,,,0.00,WSDL version 420,2013-01-13 15:57:00,
2013-01-13 09:02:00,6.1,1.0,28.91,West,270,6.6,8.7,77,0.00,,,0.00,WSDL version 420,2013-01-13 16:02:00,
2013-01-13 09:07:00,6.2,1.2,28.91,West,278,6.2,8.7,77,0.00,,,0.00,WSDL version 420,2013-01-13 16:07:00,
2013-01-13 09:12:00,7.0,1.9,28.88,West,281,3.8,7.4,77,0.00,,,0.00,WSDL version 420,2013-01-13 16:12:00,
2013-01-13 09:18:00,8.1,2.9,28.88,WNW,283,8.1,9.8,77,0.00,,,0.00,WSDL version 420,2013-01-13 16:18:00,
2013-01-13 09:23:00,8.7,3.6,28.91,West,276,8.8,12.5,77,0.00,,,0.00,WSDL version 420,2013-01-13 16:23:00,
2013-01-13 09:28:00,8.9,3.8,28.91,West,270,6.0,12.5,77,0.00,,,0.00,WSDL version 420,2013-01-13 16:28:00,
2013-01-13 09:33:00,9.5,4.4,28.91,West,273,7.5,8.7,77,0.00,,,0.00,WSDL version 420,2013-01-13 16:33:00,
2013-01-13 09:38:00,10.3,5.2,28.88,West,279,7.2,9.8,77,0.00,,,0.00,WSDL version 420,2013-01-13 16:38:00,
2013-01-13 09:43:00,10.9,5.7,28.88,West,281,7.8,12.3,77,0.00,,,0.00,WSDL version 420,2013-01-13 16:43:00,
2013-01-13 09:48:00,12.0,6.8,28.88,WNW,300,8.6,12.3,77,-99.99,,,-99.99,WSDL version 420,2013-01-13 16:48:00,
2013-01-13 09:53:00,12.0,6.8,28.88,WSW,239,6.9,11.2,77,0.00,,,0.00,WSDL version 420,2013-01-13 16:53:00,
2013-01-13 09:58:00,12.7,7.5,28.88,WSW,256,5.7,10.3,77,0.00,,,0.00,WSDL version 420,2013-01-13 16:58:00,
2013-01-13 10:03:00,13.1,7.8,28.88,West,273,6.7,10.3,77,0.00,,,0.00,WSDL version 420,2013-01-13 17:03:00,
2013-01-13 10:08:00,15.1,9.5,28.88,West,266,6.0,10.1,75,0.00,,,0.00,WSDL version 420,2013-01-13 17:08:00,
2013-01-13 10:13:00,17.8,12.3,28.88,WSW,248,5.8,10.1,78,0.00,,,0.00,WSDL version 420,2013-01-13 17:13:00,
2013-01-13 10:18:00,17.7,11.9,28.88,West,270,6.4,11.0,76,0.00,,,0.00,WSDL version 420,2013-01-13 17:18:00,
2013-01-13 10:23:00,17.5,11.3,28.88,WSW,254,7.3,11.0,75,0.00,,,0.00,WSDL version 420,2013-01-13 17:23:00,
2013-01-13 10:28:00,18.1,12.3,28.88,WNW,283,8.5,10.7,75,0.00,,,0.00,WSDL version 420,2013-01-13 17:28:00,
2013-01-13 10:33:00,17.3,10.4,28.88,West,276,5.2,10.7,72,0.00,,,0.00,WSDL version 420,2013-01-13 17:33:00,
2013-01-13 10:38:00,18.9,12.4,28.88,SW,219,5.2,8.7,74,0.00,,,0.00,WSDL version 420,2013-01-13 17:38:00,
2013-01-13 10:43:00,20.4,13.3,28.88,West,270,7.4,10.5,67,0.00,,,0.00,WSDL version 420,2013-01-13 17:43:00,
2013-01-13 10:48:00,21.7,14.0,28.88,West,276,9.3,12.5,66,0.00,,,0.00,WSDL version 420,2013-01-13 17:48:00,
2013-01-13 10:53:00,20.6,8.5,28.85,WNW,293,11.7,15.4,49,0.00,,,0.00,WSDL version 420,2013-01-13 17:53:00,
2013-01-13 10:58:00,18.9,2.9,28.85,West,281,11.9,15.7,44,0.00,,,0.00,WSDL version 420,2013-01-13 17:58:00,
2013-01-13 11:03:00,17.7,1.7,28.85,WNW,293,9.1,15.7,45,0.00,,,0.00,WSDL version 420,2013-01-13 18:03:00,
2013-01-13 11:08:00,17.6,1.4,28.85,WNW,298,13.6,15.9,44,-99.99,,,-99.99,WSDL version 420,2013-01-13 18:08:00,
2013-01-13 11:13:00,17.4,1.4,28.85,WNW,299,11.7,15.9,45,0.00,,,0.00,WSDL version 420,2013-01-13 18:13:00,
2013-01-13 11:18:00,16.9,0.6,28.85,West,273,11.5,15.4,44,0.00,,,0.00,WSDL version 420,2013-01-13 18:18:00,
2013-01-13 11:23:00,16.7,0.8,28.85,WNW,289,11.2,15.2,44,0.00,,,0.00,WSDL version 420,2013-01-13 18:23:00,
2013-01-13 11:28:00,16.3,0.4,28.85,WNW,296,10.9,15.2,45,0.00,,,0.00,WSDL version 420,2013-01-13 18:28:00,
2013-01-13 11:33:00,16.1,-0.1,28.85,WNW,301,10.5,14.5,44,0.00,,,0.00,WSDL version 420,2013-01-13 18:33:00,
2013-01-13 11:38:00,16.2,0.0,28.85,WNW,296,9.9,15.4,44,0.00,,,0.00,WSDL version 420,2013-01-13 18:38:00,
2013-01-13 11:43:00,16.2,-0.1,28.85,WNW,296,12.5,16.3,44,0.00,,,0.00,WSDL version 420,2013-01-13 18:43:00,
2013-01-13 11:48:00,16.3,-0.3,28.85,WNW,299,10.9,16.3,43,-99.99,,,-99.99,WSDL version 420,2013-01-13 18:48:00,
2013-01-13 11:53:00,16.9,-0.4,28.82,WNW,302,10.5,13.2,41,0.00,,,0.00,WSDL version 420,2013-01-13 18:53:00,
2013-01-13 11:58:00,19.2,1.4,28.82,West,280,10.2,13.2,41,0.00,,,0.00,WSDL version 420,2013-01-13 18:58:00,
2013-01-13 12:03:00,20.4,1.0,28.82,WNW,287,9.3,15.2,37,0.00,,,0.00,WSDL version 420,2013-01-13 19:03:00,
2013-01-13 12:08:00,21.1,0.7,28.85,WNW,297,9.2,15.2,36,0.00,,,0.00,WSDL version 420,2013-01-13 19:08:00,
2013-01-13 12:13:00,20.5,-0.4,28.85,West,279,11.0,14.3,35,0.00,,,0.00,WSDL version 420,2013-01-13 19:13:00,
2013-01-13 12:18:00,19.9,-1.4,28.85,WNW,300,8.6,13.2,34,0.00,,,0.00,WSDL version 420,2013-01-13 19:18:00,
2013-01-13 12:23:00,19.5,-1.7,28.85,NW,321,9.3,13.2,35,0.00,,,0.00,WSDL version 420,2013-01-13 19:23:00,
2013-01-13 12:28:00,18.3,-2.8,28.85,WNW,293,8.9,13.2,35,0.00,,,0.00,WSDL version 420,2013-01-13 19:28:00,
2013-01-13 12:33:00,18.7,-2.1,28.85,WNW,293,9.5,13.0,35,0.00,,,0.00,WSDL version 420,2013-01-13 19:33:00,
2013-01-13 12:38:00,18.0,-2.7,28.85,NW,323,9.9,14.8,35,0.00,,,0.00,WSDL version 420,2013-01-13 19:38:00,
2013-01-13 12:43:00,18.1,-2.6,28.85,NW,308,8.9,14.8,35,0.00,,,0.00,WSDL version 420,2013-01-13 19:43:00,
2013-01-13 12:48:00,18.5,-2.3,28.85,WNW,296,8.8,12.5,35,0.00,,,0.00,WSDL version 420,2013-01-13 19:48:00,
2013-01-13 12:53:00,18.4,-2.3,28.85,WNW,293,10.6,13.4,35,0.00,,,0.00,WSDL version 420,2013-01-13 19:53:00,
2013-01-13 12:58:00,18.4,-2.4,28.85,WNW,302,9.8,13.4,35,0.00,,,0.00,WSDL version 420,2013-01-13 19:58:00,
2013-01-13 13:03:00,18.1,-2.6,28.85,NW,312,10.3,14.5,35,0.00,,,0.00,WSDL version 420,2013-01-13 20:03:00,
2013-01-13 13:08:00,18.0,-2.7,28.85,WNW,293,10.0,14.5,35,0.00,,,0.00,WSDL version 420,2013-01-13 20:08:00,
2013-01-13 13:13:00,17.2,-3.4,28.85,WNW,293,7.9,12.8,35,0.00,,,0.00,WSDL version 420,2013-01-13 20:13:00,
2013-01-13 13:18:00,16.6,-4.0,28.85,NW,312,10.2,14.8,35,-99.99,,,-99.99,WSDL version 420,2013-01-13 20:18:00,
2013-01-13 13:23:00,15.9,-4.5,28.85,WNW,293,10.2,14.8,36,0.00,,,0.00,WSDL version 420,2013-01-13 20:23:00,
2013-01-13 13:28:00,15.9,-4.2,28.85,WNW,299,8.7,13.2,36,0.00,,,0.00,WSDL version 420,2013-01-13 20:28:00,
2013-01-13 13:33:00,15.9,-4.1,28.85,WNW,297,10.2,13.0,36,0.00,,,0.00,WSDL version 420,2013-01-13 20:33:00,
2013-01-13 13:39:00,15.5,-4.5,28.82,West,278,12.0,13.2,36,0.00,,,0.00,WSDL version 420,2013-01-13 20:39:00,
2013-01-13 13:44:00,15.4,-4.4,28.82,West,278,8.6,14.8,37,0.00,,,0.00,WSDL version 420,2013-01-13 20:44:00,
2013-01-13 13:49:00,15.4,-4.2,28.82,NW,305,7.8,14.8,36,0.00,,,0.00,WSDL version 420,2013-01-13 20:49:00,
2013-01-13 13:54:00,14.7,-5.2,28.85,WNW,293,9.6,12.3,36,0.00,,,0.00,WSDL version 420,2013-01-13 20:54:00,
2013-01-13 13:59:00,14.9,-4.5,28.85,West,276,8.8,15.4,37,0.00,,,0.00,WSDL version 420,2013-01-13 20:59:00,
2013-01-13 14:04:00,14.5,-5.3,28.85,NW,315,10.4,15.4,36,0.00,,,0.00,WSDL version 420,2013-01-13 21:04:00,
2013-01-13 14:09:00,14.5,-5.2,28.85,WNW,293,8.5,14.8,37,0.00,,,0.00,WSDL version 420,2013-01-13 21:09:00,
2013-01-13 14:14:00,16.4,-3.1,28.85,WNW,295,7.3,13.2,37,0.00,,,0.00,WSDL version 420,2013-01-13 21:14:00,
2013-01-13 14:19:00,16.6,-3.2,28.85,NW,304,8.1,13.2,36,0.00,,,0.00,WSDL version 420,2013-01-13 21:19:00,
2013-01-13 14:24:00,16.8,-3.3,28.91,WNW,301,8.5,12.5,36,0.00,,,0.00,WSDL version 420,2013-01-13 21:24:00,
2013-01-13 14:29:00,16.5,-3.5,28.91,NW,305,8.0,11.0,36,0.00,,,0.00,WSDL version 420,2013-01-13 21:29:00,
2013-01-13 14:34:00,15.8,-4.4,28.91,NW,321,7.8,10.3,35,0.00,,,0.00,WSDL version 420,2013-01-13 21:34:00,
2013-01-13 14:39:00,15.4,-4.5,28.91,NW,320,7.6,10.5,36,0.00,,,0.00,WSDL version 420,2013-01-13 21:39:00,
2013-01-13 14:44:00,15.3,-4.7,28.91,WNW,300,9.6,11.2,36,0.00,,,0.00,WSDL version 420,2013-01-13 21:44:00,
2013-01-13 14:49:00,15.2,-4.7,28.91,NW,308,8.5,12.5,36,0.00,,,0.00,WSDL version 420,2013-01-13 21:49:00,
2013-01-13 14:54:00,15.1,-4.9,28.97,WNW,298,8.9,13.4,36,0.00,,,0.00,WSDL version 420,2013-01-13 21:54:00,
2013-01-13 14:59:00,15.3,-4.7,28.97,WNW,296,7.8,13.4,36,0.00,,,0.00,WSDL version 420,2013-01-13 21:59:00,
2013-01-13 15:04:00,15.4,-4.3,28.97,WNW,286,6.9,11.0,36,-99.99,,,-99.99,WSDL version 420,2013-01-13 22:04:00,
2013-01-13 15:09:00,15.1,-4.5,28.97,WNW,299,8.8,12.1,37,-99.99,,,-99.99,WSDL version 420,2013-01-13 22:09:00,
2013-01-13 15:14:00,14.4,-5.3,28.97,WNW,302,6.6,12.1,37,0.00,,,0.00,WSDL version 420,2013-01-13 22:14:00,
2013-01-13 15:19:00,13.9,-5.4,28.97,NW,306,7.2,11.0,37,0.00,,,0.00,WSDL version 420,2013-01-13 22:19:00,
2013-01-13 15:24:00,13.5,-5.8,28.97,WNW,296,8.0,11.0,37,0.00,,,0.00,WSDL version 420,2013-01-13 22:24:00,
2013-01-13 15:29:00,13.5,-5.8,28.97,NW,309,6.1,11.0,37,0.00,,,0.00,WSDL version 420,2013-01-13 22:29:00,
2013-01-13 15:34:00,13.1,-6.2,28.97,WNW,293,6.6,9.8,37,0.00,,,0.00,WSDL version 420,2013-01-13 22:34:00,
2013-01-13 15:39:00,12.7,-6.6,28.97,WNW,286,7.3,10.1,37,0.00,,,0.00,WSDL version 420,2013-01-13 22:39:00,
2013-01-13 15:45:00,12.6,-6.7,28.97,WNW,288,7.6,10.1,37,0.00,,,0.00,WSDL version 420,2013-01-13 22:45:00,
2013-01-13 15:50:00,12.5,-6.7,28.97,West,267,4.9,8.9,37,0.00,,,0.00,WSDL version 420,2013-01-13 22:50:00,
2013-01-13 15:55:00,12.3,-6.9,28.97,West,278,5.0,7.6,37,0.00,,,0.00,WSDL version 420,2013-01-13 22:55:00,
2013-01-13 16:00:00,11.9,-7.2,28.97,West,276,6.3,8.1,37,-99.99,,,-99.99,WSDL version 420,2013-01-13 23:00:00,
2013-01-13 16:05:00,11.6,-7.5,28.97,West,273,5.2,8.1,37,0.00,,,0.00,WSDL version 420,2013-01-13 23:05:00,
2013-01-13 16:11:00,11.2,-7.9,28.94,West,270,5.4,8.5,37,0.00,,,0.00,WSDL version 420,2013-01-13 23:11:00,
2013-01-13 16:16:00,10.7,-8.4,28.94,WNW,287,5.3,8.5,37,0.00,,,0.00,WSDL version 420,2013-01-13 23:16:00,
2013-01-13 16:21:00,10.2,-8.9,28.94,West,273,5.4,7.6,37,0.00,,,0.00,WSDL version 420,2013-01-13 23:21:00,
2013-01-13 16:26:00,9.7,-9.3,28.97,WNW,286,4.2,7.6,37,-99.99,,,-99.99,WSDL version 420,2013-01-13 23:26:00,
2013-01-13 16:31:00,9.1,-9.9,28.97,WSW,244,3.6,5.8,37,0.00,,,0.00,WSDL version 420,2013-01-13 23:31:00,
2013-01-13 16:36:00,8.5,-10.4,28.97,WSW,244,4.9,6.3,37,0.00,,,0.00,WSDL version 420,2013-01-13 23:36:00,
2013-01-13 16:41:00,8.0,-10.9,28.97,WSW,257,4.3,6.5,37,0.00,,,0.00,WSDL version 420,2013-01-13 23:41:00,
2013-01-13 16:46:00,7.4,-11.4,28.97,WSW,251,4.8,8.1,37,-99.99,,,-99.99,WSDL version 420,2013-01-13 23:46:00,
2013-01-13 16:51:00,7.0,-11.8,28.97,SW,230,5.6,8.1,37,0.00,,,0.00,WSDL version 420,2013-01-13 23:51:00,
2013-01-13 16:56:00,6.5,-12.2,28.97,West,259,3.4,7.4,37,0.00,,,0.00,WSDL version 420,2013-01-13 23:56:00,
2013-01-13 17:01:00,6.0,-12.7,28.97,West,259,3.7,6.5,37,0.00,,,0.00,WSDL version 420,2013-01-14 00:01:00,
2013-01-13 17:06:00,5.7,-13.0,28.97,WSW,251,5.7,7.6,37,-99.99,,,-99.99,WSDL version 420,2013-01-14 00:06:00,
2013-01-13 17:11:00,5.5,-13.2,28.97,WSW,257,4.8,8.5,37,0.00,,,0.00,WSDL version 420,2013-01-14 00:11:00,
2013-01-13 17:16:00,5.4,-13.3,28.97,SW,231,5.5,8.5,37,0.00,,,0.00,WSDL version 420,2013-01-14 00:16:00,
2013-01-13 17:21:00,5.0,-13.6,28.97,SW,236,5.9,8.7,37,0.00,,,0.00,WSDL version 420,2013-01-14 00:21:00,
2013-01-13 17:26:00,4.9,-13.7,28.97,West,276,6.0,8.7,37,0.00,,,0.00,WSDL version 420,2013-01-14 00:26:00,
2013-01-13 17:31:00,4.6,-14.0,28.97,WSW,250,4.7,7.6,37,0.00,,,0.00,WSDL version 420,2013-01-14 00:31:00,
2013-01-13 17:36:00,4.4,-14.2,28.97,West,270,5.1,9.8,37,0.00,,,0.00,WSDL version 420,2013-01-14 00:36:00,
2013-01-13 17:41:00,4.2,-14.4,28.97,West,263,5.4,9.8,37,0.00,,,0.00,WSDL version 420,2013-01-14 00:41:00,
2013-01-13 17:46:00,4.1,-14.5,28.97,WSW,251,6.7,8.1,37,0.00,,,0.00,WSDL version 420,2013-01-14 00:46:00,
2013-01-13 17:51:00,3.7,-14.8,28.97,SW,236,6.9,8.5,37,0.00,,,0.00,WSDL version 420,2013-01-14 00:51:00,
2013-01-13 17:56:00,3.3,-15.2,28.97,WSW,248,5.4,8.5,37,0.00,,,0.00,WSDL version 420,2013-01-14 00:56:00,
2013-01-13 18:01:00,3.1,-15.4,28.97,West,270,5.4,8.1,37,0.00,,,0.00,WSDL version 420,2013-01-14 01:01:00,
2013-01-13 18:06:00,2.4,-16.0,28.97,West,266,5.4,7.4,37,0.00,,,0.00,WSDL version 420,2013-01-14 01:06:00,
2013-01-13 18:11:00,2.3,-16.1,28.94,WSW,256,5.6,9.8,37,0.00,,,0.00,WSDL version 420,2013-01-14 01:11:00,
2013-01-13 18:16:00,2.8,-15.6,28.94,WSW,257,6.7,9.8,37,0.00,,,0.00,WSDL version 420,2013-01-14 01:16:00,
2013-01-13 18:21:00,3.2,-15.3,28.94,WSW,251,7.5,11.0,37,0.00,,,0.00,WSDL version 420,2013-01-14 01:21:00,
2013-01-13 18:26:00,3.6,-14.9,28.94,WSW,253,6.5,11.0,37,0.00,,,0.00,WSDL version 420,2013-01-14 01:26:00,
2013-01-13 18:31:00,-999.0,-99.9,28.94,West,266,6.4,10.7,-999,0.00,,,0.00,WSDL version 420,2013-01-14 01:31:00,
2013-01-13 18:36:00,2.7,-15.7,28.94,West,270,7.9,9.8,37,0.00,,,0.00,WSDL version 420,2013-01-14 01:36:00,
2013-01-13 18:41:00,2.4,-16.0,28.91,West,267,8.1,10.5,37,-99.99,,,-99.99,WSDL version 420,2013-01-14 01:41:00,
2013-01-13 18:46:00,2.7,-15.8,28.91,West,267,8.6,15.4,37,0.00,,,0.00,WSDL version 420,2013-01-14 01:46:00,
2013-01-13 18:51:00,3.1,-15.4,28.91,WNW,286,7.7,15.4,37,0.00,,,0.00,WSDL version 420,2013-01-14 01:51:00,
2013-01-13 18:56:00,3.1,-15.4,28.91,West,280,7.8,13.2,37,0.00,,,0.00,WSDL version 420,2013-01-14 01:56:00,
2013-01-13 19:01:00,2.8,-15.6,28.91,West,280,6.5,12.3,37,0.00,,,0.00,WSDL version 420,2013-01-14 02:01:00,
2013-01-13 19:06:00,2.7,-15.7,28.91,SW,235,6.5,10.7,37,0.00,,,0.00,WSDL version 420,2013-01-14 02:06:00,
2013-01-13 19:11:00,3.1,-15.3,28.91,WSW,239,8.4,12.8,37,0.00,,,0.00,WSDL version 420,2013-01-14 02:11:00,
2013-01-13 19:16:00,3.1,-15.4,28.91,SW,219,7.5,12.8,37,0.00,,,0.00,WSDL version 420,2013-01-14 02:16:00,
2013-01-13 19:21:00,2.7,-15.8,28.91,SW,218,6.7,10.3,37,0.00,,,0.00,WSDL version 420,2013-01-14 02:21:00,
2013-01-13 19:26:00,2.4,-16.0,28.91,WSW,250,4.4,8.7,37,0.00,,,0.00,WSDL version 420,2013-01-14 02:26:00,
2013-01-13 19:31:00,2.5,-15.9,28.91,West,259,6.2,8.1,37,0.00,,,0.00,WSDL version 420,2013-01-14 02:31:00,
2013-01-13 19:36:00,2.0,-16.4,28.91,West,280,6.6,8.5,37,0.00,,,0.00,WSDL version 420,2013-01-14 02:36:00,
2013-01-13 19:41:00,1.8,-16.6,28.91,West,275,6.5,8.5,37,0.00,,,0.00,WSDL version 420,2013-01-14 02:41:00,
2013-01-13 19:46:00,1.7,-16.7,28.91,WNW,289,7.4,8.5,37,0.00,,,0.00,WSDL version 420,2013-01-14 02:46:00,
2013-01-13 19:51:00,1.4,-16.9,28.91,West,264,4.6,8.5,37,0.00,,,0.00,WSDL version 420,2013-01-14 02:51:00,
2013-01-13 19:56:00,1.4,-16.9,28.91,West,281,6.7,7.8,37,0.00,,,0.00,WSDL version 420,2013-01-14 02:56:00,
2013-01-13 20:01:00,1.2,-17.1,28.91,West,280,7.1,10.1,37,0.00,,,0.00,WSDL version 420,2013-01-14 03:01:00,
2013-01-13 20:06:00,1.0,-17.3,28.91,WNW,285,7.5,10.3,37,0.00,,,0.00,WSDL version 420,2013-01-14 03:06:00,
2013-01-13 20:11:00,1.0,-17.3,28.91,WNW,287,7.2,10.3,37,0.00,,,0.00,WSDL version 420,2013-01-14 03:11:00,
2013-01-13 20:16:00,1.0,-17.3,28.91,West,280,7.3,10.1,37,0.00,,,0.00,WSDL version 420,2013-01-14 03:16:00,
2013-01-13 20:21:00,0.8,-17.5,28.91,WNW,293,7.0,8.7,37,0.00,,,0.00,WSDL version 420,2013-01-14 03:21:00,
2013-01-13 20:26:00,0.6,-17.7,28.88,WNW,293,6.0,8.5,37,0.00,,,0.00,WSDL version 420,2013-01-14 03:26:00,
2013-01-13 20:31:00,0.3,-17.9,28.88,West,280,5.8,9.6,37,0.00,,,0.00,WSDL version 420,2013-01-14 03:31:00,
2013-01-13 20:36:00,0.3,-17.9,28.88,WSW,257,5.5,10.7,37,0.00,,,0.00,WSDL version 420,2013-01-14 03:36:00,
2013-01-13 20:41:00,0.4,-17.9,28.88,West,270,6.0,10.7,37,0.00,,,0.00,WSDL version 420,2013-01-14 03:41:00,
2013-01-13 20:46:00,0.0,-18.2,28.88,WSW,257,5.2,7.8,37,0.00,,,0.00,WSDL version 420,2013-01-14 03:46:00,
2013-01-13 20:51:00,-0.5,-18.7,28.88,West,280,6.0,8.1,37,0.00,,,0.00,WSDL version 420,2013-01-14 03:51:00,
2013-01-13 20:56:00,-0.6,-18.8,28.91,West,281,6.7,10.3,37,-99.99,,,-99.99,WSDL version 420,2013-01-14 03:56:00,
2013-01-13 21:01:00,-0.7,-18.9,28.91,West,273,6.4,10.3,37,-99.99,,,-99.99,WSDL version 420,2013-01-14 04:01:00,
2013-01-13 21:06:00,-0.9,-19.1,28.91,West,270,4.3,8.7,37,0.00,,,0.00,WSDL version 420,2013-01-14 04:06:00,
2013-01-13 21:11:00,-0.9,-19.0,28.91,WSW,257,4.8,8.5,37,-99.99,,,-99.99,WSDL version 420,2013-01-14 04:11:00,
2013-01-13 21:16:00,-0.8,-18.9,28.91,West,270,4.8,7.4,37,-99.99,,,-99.99,WSDL version 420,2013-01-14 04:16:00,
2013-01-13 21:21:00,-1.0,-19.2,28.91,West,274,6.7,8.5,37,0.00,,,0.00,WSDL version 420,2013-01-14 04:21:00,
2013-01-13 21:26:00,-999.0,-99.9,28.91,WNW,286,7.2,8.7,-999,0.00,,,0.00,WSDL version 420,2013-01-14 04:26:00,
2013-01-13 21:31:00,-1.9,-20.0,28.91,West,267,7.1,9.6,37,0.00,,,0.00,WSDL version 420,2013-01-14 04:31:00,
2013-01-13 21:36:00,-1.9,-20.0,28.91,WNW,285,6.7,9.6,37,0.00,,,0.00,WSDL version 420,2013-01-14 04:36:00,
2013-01-13 21:41:00,-2.0,-20.1,28.91,WNW,293,5.8,8.5,37,0.00,,,0.00,WSDL version 420,2013-01-14 04:41:00,
2013-01-13 21:46:00,-2.6,-20.6,28.91,West,274,5.4,7.6,37,0.00,,,0.00,WSDL version 420,2013-01-14 04:46:00,
2013-01-13 21:51:00,-2.8,-20.8,28.91,West,278,6.4,7.8,37,0.00,,,0.00,WSDL version 420,2013-01-14 04:51:00,
2013-01-13 21:56:00,-3.0,-21.0,28.91,West,270,6.6,8.5,37,0.00,,,0.00,WSDL version 420,2013-01-14 04:56:00,
2013-01-13 22:03:00,-3.3,-21.3,28.91,West,278,6.1,8.5,37,0.00,,,0.00,WSDL version 420,2013-01-14 05:03:00,
2013-01-13 22:04:00,-3.3,-21.3,28.91,West,273,5.7,8.5,37,0.00,,,0.00,WSDL version 420,2013-01-14 05:04:00,
2013-01-13 22:05:00,-3.4,-21.4,28.91,West,280,5.6,8.5,37,0.00,,,0.00,WSDL version 420,2013-01-14 05:05:00,
2013-01-13 22:07:00,-3.5,-21.5,28.91,WNW,298,5.9,7.8,37,-99.99,,,-99.99,WSDL version 420,2013-01-14 05:07:00,
2013-01-13 22:12:00,-3.7,-21.6,28.91,WNW,293,6.3,7.8,37,0.00,,,0.00,WSDL version 420,2013-01-14 05:12:00,
2013-01-13 22:17:00,-3.8,-21.8,28.91,West,267,4.9,7.8,37,0.00,,,0.00,WSDL version 420,2013-01-14 05:17:00,
2013-01-13 22:22:00,-3.6,-21.6,28.91,WSW,257,3.6,7.4,37,0.00,,,0.00,WSDL version 420,2013-01-14 05:22:00,
2013-01-13 22:27:00,-3.5,-21.4,28.91,WNW,284,5.2,6.7,37,0.00,,,0.00,WSDL version 420,2013-01-14 05:27:00,
2013-01-13 22:32:00,-3.5,-21.4,28.91,West,274,5.1,7.6,37,0.00,,,0.00,WSDL version 420,2013-01-14 05:32:00,
2013-01-13 22:37:00,-3.4,-21.4,28.91,West,276,6.2,7.8,37,0.00,,,0.00,WSDL version 420,2013-01-14 05:37:00,
2013-01-13 22:42:00,-3.0,-21.0,28.91,West,264,4.3,7.8,37,0.00,,,0.00,WSDL version 420,2013-01-14 05:42:00,
2013-01-13 22:47:00,-2.6,-20.7,28.91,West,281,4.2,6.3,37,0.00,,,0.00,WSDL version 420,2013-01-14 05:47:00,
2013-01-13 22:52:00,-2.6,-20.6,28.91,WSW,243,4.0,7.6,37,0.00,,,0.00,WSDL version 420,2013-01-14 05:52:00,
2013-01-13 22:57:00,-1.7,-19.8,28.91,WSW,243,7.1,10.1,37,0.00,,,0.00,WSDL version 420,2013-01-14 05:57:00,
2013-01-13 23:02:00,-0.7,-18.9,28.91,SW,236,6.4,10.1,37,0.00,,,0.00,WSDL version 420,2013-01-14 06:02:00,
2013-01-13 23:07:00,0.1,-18.1,28.91,West,264,8.9,12.8,37,0.00,,,0.00,WSDL version 420,2013-01-14 06:07:00,
2013-01-13 23:12:00,0.8,-17.5,28.91,SW,233,8.7,12.8,37,0.00,,,0.00,WSDL version 420,2013-01-14 06:12:00,
2013-01-13 23:17:00,1.1,-17.2,28.91,WSW,239,7.5,12.3,37,0.00,,,0.00,WSDL version 420,2013-01-14 06:17:00,
2013-01-13 23:22:00,1.2,-17.1,28.91,WSW,251,9.6,12.5,37,0.00,,,0.00,WSDL version 420,2013-01-14 06:22:00,
2013-01-13 23:27:00,1.2,-17.1,28.94,West,266,7.2,12.5,37,0.00,,,0.00,WSDL version 420,2013-01-14 06:27:00,
2013-01-13 23:32:00,1.4,-16.9,28.94,WSW,255,6.8,11.0,37,0.00,,,0.00,WSDL version 420,2013-01-14 06:32:00,
2013-01-13 23:37:00,1.6,-16.8,28.94,West,273,8.2,11.9,37,0.00,,,0.00,WSDL version 420,2013-01-14 06:37:00,
2013-01-13 23:42:00,1.6,-16.8,28.94,WNW,293,7.8,11.9,37,0.00,,,0.00,WSDL version 420,2013-01-14 06:42:00,
2013-01-13 23:47:00,1.3,-17.1,28.94,West,276,7.7,10.3,37,0.00,,,0.00,WSDL version 420,2013-01-14 06:47:00,
2013-01-13 23:52:00,1.3,-17.0,28.94,SW,233,6.9,11.4,37,0.00,,,0.00,WSDL version 420,2013-01-14 06:52:00,
2013-01-13 23:57:00,1.9,-16.4,28.94,WSW,244,8.0,11.4,37,-99.99,,,-99.99,WSDL version 420,2013-01-14 06:57:00,